33WI weather

St Mary's Hospital Heliport
Green Bay, Wisconsin, United States

Public forecast

Using degrees Fahrenheit for public forecast. Weather courtesy of forecast.io.

Closest aviation weather report (METAR) to St Mary's Hospital Heliport

Closest report is Austin Straubel International Airport, 3.9 nm (7.3 km) SW. Retrieved 2019/11/16 20:26 UTC (0 seconds ago):

KGRB 162026Z 16010KT 10SM FEW023 02/M02 A3030 RMK AO2 T00221022

Closest aviation forecast (TAF) to St Mary's Hospital Heliport

Closest forecast is Austin Straubel International Airport, 3.9 nm (7.3 km) SW. Retrieved 2019/11/16 18:39 UTC (2 hours ago):

TAF KGRB 161735Z 1618/1718 17012G17KT P6SM SCT025 BKN120 TEMPO 1618/1620 BKN025 FM162300 17007KT P6SM BKN120 FM170900 18008KT P6SM OVC070 FM171600 19008KT P6SM BKN020 OVC070